Time;durP1;ratioP1;P1;durP2;ratioP2;P2;SDS_P1;SDS_P2;PMS_P1;PMS_P2;Temp;Humidity;BMP_temperature;BMP_pressure;BME280_temperature;BME280_humidity;BME280_pressure;Samples;Min_cycle;Max_cycle;Signal;HPM_P1;HPM_P2
2024/01/27 00:01:22;;;;;;;14.48;3.10;;;;;;;-147.95;100.00;58458.38;4957030;28;20555;-85
2024/01/27 00:03:50;;;;;;;13.73;3.38;;;;;;;-147.95;100.00;58458.38;4969435;28;20050;-84
2024/01/27 00:06:17;;;;;;;21.40;4.38;;;;;;;-147.95;100.00;58458.38;4941827;28;20046;-86
2024/01/27 00:08:46;;;;;;;14.20;3.55;;;;;;;-147.95;100.00;58458.38;4958200;28;20050;-84
2024/01/27 00:11:13;;;;;;;14.40;3.70;;;;;;;-147.95;100.00;58458.38;4969822;28;20035;-84
2024/01/27 00:13:39;;;;;;;18.00;3.80;;;;;;;-147.95;100.00;58458.38;4963329;28;20027;-85
2024/01/27 00:16:05;;;;;;;17.23;4.53;;;;;;;-147.95;100.00;58458.38;4956205;28;20251;-84
2024/01/27 00:18:31;;;;;;;11.95;3.88;;;;;;;-147.95;100.00;58458.38;4971039;28;20105;-85
2024/01/27 00:20:56;;;;;;;24.50;4.00;;;;;;;-147.95;100.00;58458.38;4953704;29;20035;-84
2024/01/27 00:23:22;;;;;;;20.80;4.75;;;;;;;-147.95;100.00;58458.38;4956471;28;20404;-84
2024/01/27 00:25:52;;;;;;;13.05;3.28;;;;;;;-147.95;100.00;58458.38;4956078;28;20490;-84
2024/01/27 00:28:18;;;;;;;22.38;5.40;;;;;;;-147.95;100.00;58458.38;4953045;28;20031;-83
2024/01/27 00:30:43;;;;;;;17.00;4.40;;;;;;;-147.95;100.00;58458.38;4956226;28;20046;-84
2024/01/27 00:33:10;;;;;;;17.17;3.95;;;;;;;-147.95;100.00;58458.38;4970140;28;20097;-85
2024/01/27 00:35:35;;;;;;;17.20;3.63;;;;;;;-147.95;100.00;58458.38;4968886;28;20101;-85
2024/01/27 00:38:03;;;;;;;20.13;4.38;;;;;;;-147.95;100.00;58458.38;4950957;28;20024;-85
2024/01/27 00:40:29;;;;;;;16.30;4.32;;;;;;;-147.95;100.00;58458.38;4957525;28;20030;-85
2024/01/27 00:42:55;;;;;;;21.08;4.68;;;;;;;-147.95;100.00;58458.38;4958182;28;20381;-84
2024/01/27 00:45:24;;;;;;;14.40;3.78;;;;;;;-147.95;100.00;58458.38;4980955;28;20416;-85
2024/01/27 00:47:50;;;;;;;13.52;3.83;;;;;;;-147.95;100.00;58458.38;4973971;28;20023;-85
2024/01/27 00:50:16;;;;;;;17.20;4.60;;;;;;;-147.95;100.00;58458.38;4941996;28;20039;-85
2024/01/27 00:52:42;;;;;;;20.33;4.03;;;;;;;-147.95;100.00;58458.38;4974609;28;20093;-85
2024/01/27 00:55:08;;;;;;;19.20;4.28;;;;;;;-147.95;100.00;58458.38;4974595;28;20033;-85
2024/01/27 00:57:35;;;;;;;19.55;4.28;;;;;;;-147.95;100.00;58458.38;4953532;28;20030;-85
2024/01/27 01:00:01;;;;;;;17.65;3.78;;;;;;;-147.95;100.00;58458.38;4954689;28;20500;-85
2024/01/27 01:02:26;;;;;;;13.60;4.50;;;;;;;-147.95;100.00;58458.38;4940620;28;20038;-84
2024/01/27 01:04:52;;;;;;;18.52;4.93;;;;;;;-147.95;100.00;58458.38;4943279;28;20450;-84
2024/01/27 01:07:18;;;;;;;19.25;4.65;;;;;;;-147.95;100.00;58458.38;4961445;28;20038;-84
2024/01/27 01:09:45;;;;;;;12.75;4.30;;;;;;;-147.95;100.00;58458.38;4971208;28;21511;-84
2024/01/27 01:12:11;;;;;;;11.63;3.58;;;;;;;-147.95;100.00;58458.38;4960491;28;20033;-85
2024/01/27 01:14:37;;;;;;;16.35;4.05;;;;;;;-147.95;100.00;58458.38;4959580;28;20030;-85
2024/01/27 01:17:02;;;;;;;16.60;4.38;;;;;;;-147.95;100.00;58458.38;4960955;28;20026;-85
2024/01/27 01:19:28;;;;;;;15.95;4.10;;;;;;;-147.95;100.00;58458.38;4975098;28;20034;-84
2024/01/27 01:21:53;;;;;;;17.23;4.18;;;;;;;-147.95;100.00;58458.38;4957471;28;20039;-84
2024/01/27 01:24:19;;;;;;;18.55;6.65;;;;;;;-147.95;100.00;58458.38;4959521;28;20036;-84
2024/01/27 01:26:44;;;;;;;22.52;4.80;;;;;;;-147.95;100.00;58458.38;4941984;28;20252;-86
2024/01/27 01:29:09;;;;;;;22.17;4.55;;;;;;;-147.95;100.00;58458.38;4944250;28;20080;-84
2024/01/27 01:31:35;;;;;;;23.45;4.50;;;;;;;-147.95;100.00;58458.38;4942367;28;20034;-85
2024/01/27 01:34:00;;;;;;;25.83;5.03;;;;;;;-147.95;100.00;58458.38;4952942;28;20034;-85
2024/01/27 01:36:26;;;;;;;17.60;5.00;;;;;;;-147.95;100.00;58458.38;4975213;28;20387;-84
2024/01/27 01:38:53;;;;;;;18.33;4.57;;;;;;;-147.95;100.00;58458.38;4941049;28;20031;-84
2024/01/27 01:41:19;;;;;;;21.00;5.43;;;;;;;-147.95;100.00;58458.38;4973835;28;20511;-85
2024/01/27 01:43:44;;;;;;;15.90;4.50;;;;;;;-147.95;100.00;58458.38;4951959;28;20027;-84
2024/01/27 01:46:10;;;;;;;15.27;4.55;;;;;;;-147.95;100.00;58458.38;4965382;28;20038;-85
2024/01/27 01:48:35;;;;;;;21.90;5.03;;;;;;;-147.95;100.00;58458.38;4959545;28;20047;-84
2024/01/27 01:51:02;;;;;;;15.73;4.53;;;;;;;-147.95;100.00;58458.38;4974329;28;20042;-84
2024/01/27 01:53:29;;;;;;;15.95;4.97;;;;;;;-147.95;100.00;58458.38;4940756;28;20027;-84
2024/01/27 01:55:55;;;;;;;19.52;5.05;;;;;;;-147.95;100.00;58458.38;4940495;28;20373;-84
2024/01/27 01:58:23;;;;;;;22.95;4.38;;;;;;;-147.95;100.00;58458.38;4957894;28;20026;-84
2024/01/27 02:00:49;;;;;;;26.27;5.38;;;;;;;-147.95;100.00;58458.38;4941964;28;20049;-84
2024/01/27 02:03:15;;;;;;;14.35;4.03;;;;;;;-147.95;100.00;58458.38;4992368;28;20059;-86
2024/01/27 02:05:40;;;;;;;23.98;5.20;;;;;;;-147.95;100.00;58458.38;4973360;28;20686;-85
2024/01/27 02:08:06;;;;;;;28.10;4.80;;;;;;;-147.95;100.00;58458.38;4958976;28;20113;-84
2024/01/27 02:10:36;;;;;;;19.50;5.32;;;;;;;-147.95;100.00;58458.38;4957076;28;20034;-84
2024/01/27 02:13:23;;;;;;;16.40;4.63;;;;;;;-147.95;100.00;58458.38;4975683;28;20472;-84
2024/01/27 02:15:49;;;;;;;19.15;4.15;;;;;;;-147.95;100.00;58458.38;4959676;28;20034;-85
2024/01/27 02:18:15;;;;;;;20.90;4.38;;;;;;;-147.95;100.00;58458.38;4956511;28;20023;-84
2024/01/27 02:20:42;;;;;;;12.65;4.55;;;;;;;-147.95;100.00;58458.38;4946929;28;20034;-84
2024/01/27 02:23:08;;;;;;;16.85;4.47;;;;;;;-147.95;100.00;58458.38;4957531;28;20035;-84
2024/01/27 02:25:34;;;;;;;18.30;5.53;;;;;;;-147.95;100.00;58458.38;4969234;28;20057;-85
2024/01/27 02:28:02;;;;;;;19.52;4.97;;;;;;;-147.95;100.00;58458.38;4956349;28;20035;-84
2024/01/27 02:30:28;;;;;;;14.73;4.57;;;;;;;-147.95;100.00;58458.38;4972260;28;20037;-83
2024/01/27 02:32:58;;;;;;;22.05;4.45;;;;;;;-147.95;100.00;58458.38;4971170;28;20030;-84
2024/01/27 02:35:25;;;;;;;20.00;4.78;;;;;;;-147.95;100.00;58458.38;4986147;28;20932;-83
2024/01/27 02:37:52;;;;;;;28.27;5.00;;;;;;;-147.95;100.00;58458.38;4969513;28;20484;-84
2024/01/27 02:40:20;;;;;;;19.20;5.05;;;;;;;-147.95;100.00;58458.38;4957960;28;20121;-84
2024/01/27 02:42:47;;;;;;;21.85;4.75;;;;;;;-147.95;100.00;58458.38;4991062;28;20031;-84
2024/01/27 02:45:13;;;;;;;19.60;4.57;;;;;;;-147.95;100.00;58458.38;4958871;28;20456;-86
2024/01/27 02:47:38;;;;;;;19.40;4.70;;;;;;;-147.95;100.00;58458.38;4972282;28;20491;-83
2024/01/27 02:50:06;;;;;;;23.33;4.63;;;;;;;-147.95;100.00;58458.38;4956103;28;20034;-83
2024/01/27 02:52:32;;;;;;;15.13;4.40;;;;;;;-147.95;100.00;58458.38;4947381;28;20031;-84
2024/01/27 02:54:58;;;;;;;17.02;3.97;;;;;;;-147.95;100.00;58458.38;4957250;28;20480;-84
2024/01/27 02:57:25;;;;;;;15.18;4.18;;;;;;;-147.95;100.00;58458.38;4974149;28;20027;-84
2024/01/27 02:59:51;;;;;;;15.35;5.03;;;;;;;-147.95;100.00;58458.38;4957670;28;20065;-85
2024/01/27 03:02:17;;;;;;;16.90;4.78;;;;;;;-147.95;100.00;58458.38;4954573;28;20065;-84
2024/01/27 03:04:42;;;;;;;19.70;4.15;;;;;;;-147.95;100.00;58458.38;4955818;28;20500;-84
2024/01/27 03:07:08;;;;;;;26.23;4.45;;;;;;;-147.95;100.00;58458.38;4956786;28;20037;-85
2024/01/27 03:09:33;;;;;;;20.55;4.45;;;;;;;-147.95;100.00;58458.38;4971451;28;20030;-84
2024/01/27 03:11:59;;;;;;;17.98;4.03;;;;;;;-147.95;100.00;58458.38;4974740;28;20037;-83
2024/01/27 03:14:25;;;;;;;18.35;4.60;;;;;;;-147.95;100.00;58458.38;4960703;28;20117;-83
2024/01/27 03:16:51;;;;;;;14.85;4.85;;;;;;;-147.95;100.00;58458.38;4971305;28;20228;-90
2024/01/27 03:19:17;;;;;;;19.52;4.85;;;;;;;-147.95;100.00;58458.38;4995054;28;20026;-89
2024/01/27 03:21:46;;;;;;;15.30;4.30;;;;;;;-147.95;100.00;58458.38;4978491;28;20030;-89
2024/01/27 03:24:13;;;;;;;18.00;4.22;;;;;;;-147.95;100.00;58458.38;4978870;28;20027;-89
2024/01/27 03:26:40;;;;;;;20.63;4.47;;;;;;;-147.95;100.00;58458.38;4979031;28;20034;-89
2024/01/27 03:29:06;;;;;;;11.88;3.95;;;;;;;-147.95;100.00;58458.38;4967514;28;20451;-88
2024/01/27 03:31:34;;;;;;;15.40;4.05;;;;;;;-147.95;100.00;58458.38;4966804;28;20030;-89
2024/01/27 03:34:02;;;;;;;16.92;4.68;;;;;;;-147.95;100.00;58458.38;4985305;28;20038;-88
2024/01/27 03:36:29;;;;;;;23.63;4.60;;;;;;;-147.95;100.00;58458.38;4982826;28;20027;-89
2024/01/27 03:38:59;;;;;;;18.65;4.22;;;;;;;-147.95;100.00;58458.38;4975439;28;20022;-89
2024/01/27 03:41:25;;;;;;;16.42;3.92;;;;;;;-147.95;100.00;58458.38;4972289;28;20105;-88
2024/01/27 03:43:51;;;;;;;15.85;4.22;;;;;;;-147.95;100.00;58458.38;4967498;28;20023;-88
2024/01/27 03:46:16;;;;;;;17.20;4.25;;;;;;;-147.95;100.00;58458.38;4946418;28;20397;-89
2024/01/27 03:48:42;;;;;;;15.43;3.67;;;;;;;-147.95;100.00;58458.38;4977859;28;20069;-89
2024/01/27 03:51:07;;;;;;;21.90;4.38;;;;;;;-147.95;100.00;58458.38;4959335;28;20035;-89
2024/01/27 03:53:33;;;;;;;22.60;4.03;;;;;;;-147.95;100.00;58458.38;4990009;28;20035;-90
2024/01/27 03:56:04;;;;;;;23.13;4.03;;;;;;;-147.95;100.00;58458.38;4979615;28;20456;-91
2024/01/27 03:58:31;;;;;;;16.40;4.15;;;;;;;-147.95;100.00;58458.38;4985817;28;20033;-89
2024/01/27 04:00:57;;;;;;;21.55;4.50;;;;;;;-147.95;100.00;58458.38;4993122;28;20030;-89
2024/01/27 04:03:26;;;;;;;15.38;4.40;;;;;;;-147.95;100.00;58458.38;5006104;28;20049;-89
2024/01/27 04:05:51;;;;;;;10.82;4.45;;;;;;;-147.95;100.00;58458.38;4969069;28;20079;-90
2024/01/27 04:08:17;;;;;;;16.35;4.30;;;;;;;-147.95;100.00;58458.38;4949456;28;20054;-89
2024/01/27 04:10:44;;;;;;;22.85;5.05;;;;;;;-147.95;100.00;58458.38;4966567;28;20061;-89
2024/01/27 04:13:11;;;;;;;15.40;4.63;;;;;;;-147.95;100.00;58458.38;4985195;28;20027;-89
2024/01/27 04:15:39;;;;;;;18.70;5.03;;;;;;;-147.95;100.00;58458.38;4969014;28;20133;-89
2024/01/27 04:18:07;;;;;;;13.80;4.95;;;;;;;-147.95;100.00;58458.38;4978872;28;20030;-89
2024/01/27 04:20:35;;;;;;;14.95;4.43;;;;;;;-147.95;100.00;58458.38;4964231;28;20577;-89
2024/01/27 04:23:01;;;;;;;19.58;4.45;;;;;;;-147.95;100.00;58458.38;4979044;28;20026;-89
2024/01/27 04:25:26;;;;;;;12.18;4.18;;;;;;;-147.95;100.00;58458.38;4967491;28;20026;-89
2024/01/27 04:27:52;;;;;;;21.98;4.70;;;;;;;-147.95;100.00;58458.38;4951968;28;20386;-89
2024/01/27 04:30:18;;;;;;;14.40;4.70;;;;;;;-147.95;100.00;58458.38;4941558;28;20500;-89
2024/01/27 04:32:43;;;;;;;12.77;4.40;;;;;;;-147.95;100.00;58458.38;4960819;28;20042;-89
2024/01/27 04:35:10;;;;;;;16.40;5.07;;;;;;;-147.95;100.00;58458.38;4944699;28;20114;-89
2024/01/27 04:37:35;;;;;;;13.35;4.35;;;;;;;-147.95;100.00;58458.38;4947094;28;20045;-89
2024/01/27 04:40:01;;;;;;;13.90;4.40;;;;;;;-147.95;100.00;58458.38;4948086;28;20030;-89
2024/01/27 04:42:26;;;;;;;21.30;5.20;;;;;;;-147.95;100.00;58458.38;4948029;28;20040;-89
2024/01/27 04:44:52;;;;;;;15.10;4.97;;;;;;;-147.95;100.00;58458.38;4950796;28;20038;-89
2024/01/27 04:47:17;;;;;;;17.08;4.88;;;;;;;-147.95;100.00;58458.38;4948616;28;20026;-90
2024/01/27 04:49:42;;;;;;;15.10;4.80;;;;;;;-147.95;100.00;58458.38;4948028;28;20456;-89
2024/01/27 04:52:08;;;;;;;17.95;4.40;;;;;;;-147.95;100.00;58458.38;4956631;28;20030;-90
2024/01/27 04:54:33;;;;;;;18.50;5.82;;;;;;;-147.95;100.00;58458.38;4956599;28;20513;-90
2024/01/27 04:56:59;;;;;;;18.65;4.90;;;;;;;-147.95;100.00;58458.38;4959073;28;20026;-90
2024/01/27 04:59:24;;;;;;;16.70;5.28;;;;;;;-147.95;100.00;58458.38;4975647;28;20034;-89
2024/01/27 05:01:50;;;;;;;20.85;5.20;;;;;;;-147.95;100.00;58458.38;4958321;28;20022;-90
2024/01/27 05:04:16;;;;;;;14.23;5.47;;;;;;;-147.95;100.00;58458.38;4973983;28;20054;-89
2024/01/27 05:06:49;;;;;;;15.38;4.70;;;;;;;-147.95;100.00;58458.38;4959523;28;20196;-89
2024/01/27 05:09:16;;;;;;;;;;;;;;;-147.95;100.00;58458.38;4972091;28;20035;-90
2024/01/27 05:11:42;;;;;;;22.45;5.28;;;;;;;-147.95;100.00;58458.38;4996636;28;19960;-90
2024/01/27 05:14:08;;;;;;;15.95;6.00;;;;;;;-147.95;100.00;58458.38;4946763;28;20705;-89
2024/01/27 05:16:34;;;;;;;16.40;5.70;;;;;;;-147.95;100.00;58458.38;4972047;28;20089;-89
2024/01/27 05:18:59;;;;;;;21.50;6.00;;;;;;;-147.95;100.00;58458.38;4971466;28;20026;-89
2024/01/27 05:21:25;;;;;;;22.08;6.10;;;;;;;-147.95;100.00;58458.38;4955369;28;20065;-89
2024/01/27 05:23:50;;;;;;;22.80;5.63;;;;;;;-147.95;100.00;58458.38;4968806;28;20026;-89
2024/01/27 05:26:15;;;;;;;21.65;5.38;;;;;;;-147.95;100.00;58458.38;4953758;28;20066;-89
2024/01/27 05:28:41;;;;;;;20.75;5.78;;;;;;;-147.95;100.00;58458.38;4948255;28;20089;-89
2024/01/27 05:31:07;;;;;;;18.92;6.55;;;;;;;-147.95;100.00;58458.38;4972067;28;20408;-88
2024/01/27 05:33:33;;;;;;;23.95;6.03;;;;;;;-147.95;100.00;58458.38;4985868;28;20113;-89
2024/01/27 05:35:58;;;;;;;19.40;6.75;;;;;;;-147.95;100.00;58458.38;4956164;28;20034;-89
2024/01/27 05:38:24;;;;;;;23.73;6.82;;;;;;;-147.95;100.00;58458.38;4952602;28;20034;-89
2024/01/27 05:40:50;;;;;;;19.00;6.00;;;;;;;-147.95;100.00;58458.38;4968574;28;20068;-90
2024/01/27 05:43:16;;;;;;;15.63;6.07;;;;;;;-147.95;100.00;58458.38;4950873;28;20030;-88
2024/01/27 05:45:41;;;;;;;24.90;6.78;;;;;;;-147.95;100.00;58458.38;4977558;28;20022;-88
2024/01/27 05:48:07;;;;;;;21.35;6.70;;;;;;;-147.95;100.00;58458.38;4964195;28;20178;-89
2024/01/27 05:50:34;;;;;;;23.38;6.40;;;;;;;-147.95;100.00;58458.38;4946689;28;20037;-89
2024/01/27 05:52:59;;;;;;;15.07;6.38;;;;;;;-147.95;100.00;58458.38;4943564;28;20035;-89
2024/01/27 05:55:25;;;;;;;18.42;6.63;;;;;;;-147.95;100.00;58458.38;4973026;28;20030;-90
2024/01/27 05:57:50;;;;;;;14.52;6.15;;;;;;;-147.95;100.00;58458.38;4943203;28;20050;-89
2024/01/27 06:00:16;;;;;;;16.60;5.68;;;;;;;-147.95;100.00;58458.38;4958002;28;20074;-89
2024/01/27 06:02:41;;;;;;;18.50;6.72;;;;;;;-147.95;100.00;58458.38;4946087;28;20086;-90
2024/01/27 06:05:08;;;;;;;15.00;6.03;;;;;;;-147.95;100.00;58458.38;4949661;28;20050;-90
2024/01/27 06:07:34;;;;;;;28.85;7.03;;;;;;;-147.95;100.00;58458.38;4937882;28;20125;-89
2024/01/27 06:09:59;;;;;;;22.52;7.07;;;;;;;-147.95;100.00;58458.38;4938100;28;20117;-89
2024/01/27 06:12:25;;;;;;;16.10;6.35;;;;;;;-147.95;100.00;58458.38;4947507;28;20027;-89
2024/01/27 06:14:50;;;;;;;15.95;7.03;;;;;;;-147.95;100.00;58458.38;4943594;28;20046;-88
2024/01/27 06:17:16;;;;;;;23.80;7.30;;;;;;;-147.95;100.00;58458.38;4945756;28;20033;-88
2024/01/27 06:19:41;;;;;;;18.90;6.50;;;;;;;-147.95;100.00;58458.38;4953521;28;20035;-88
2024/01/27 06:22:07;;;;;;;23.60;7.18;;;;;;;-147.95;100.00;58458.38;4940180;28;20035;-89
2024/01/27 06:24:32;;;;;;;25.15;7.97;;;;;;;-147.95;100.00;58458.38;4959317;28;20507;-90
2024/01/27 06:26:58;;;;;;;15.90;6.55;;;;;;;-147.95;100.00;58458.38;4954058;28;20027;-91
2024/01/27 06:29:25;;;;;;;18.77;7.32;;;;;;;-147.95;100.00;58458.38;4974871;28;20038;-89
2024/01/27 06:31:50;;;;;;;21.98;6.88;;;;;;;-147.95;100.00;58458.38;4958943;28;20042;-88
2024/01/27 06:34:16;;;;;;;20.63;7.07;;;;;;;-147.95;100.00;58458.38;4945982;28;20034;-89
2024/01/27 06:36:41;;;;;;;20.52;6.97;;;;;;;-147.95;100.00;58458.38;4977645;28;20400;-89
2024/01/27 06:39:07;;;;;;;22.45;7.43;;;;;;;-147.95;100.00;58458.38;4942146;28;20031;-89
2024/01/27 06:41:33;;;;;;;14.88;6.90;;;;;;;-147.95;100.00;58458.38;4946113;28;20046;-88
2024/01/27 06:43:58;;;;;;;21.10;8.85;;;;;;;-147.95;100.00;58458.38;4936579;28;20030;-90
2024/01/27 06:46:24;;;;;;;15.73;8.45;;;;;;;-147.95;100.00;58458.38;4944673;28;20081;-86
2024/01/27 06:48:50;;;;;;;20.88;7.13;;;;;;;-147.95;100.00;58458.38;4941138;28;20050;-85
2024/01/27 06:51:15;;;;;;;21.35;7.35;;;;;;;-147.95;100.00;58458.38;4949449;28;20534;-85
2024/01/27 06:53:40;;;;;;;24.02;7.75;;;;;;;-147.95;100.00;58458.38;4955026;28;20034;-84
2024/01/27 06:56:08;;;;;;;24.35;8.45;;;;;;;-147.95;100.00;58458.38;4954346;28;20504;-85
2024/01/27 06:58:34;;;;;;;26.98;7.43;;;;;;;-147.95;100.00;58458.38;4992108;28;20034;-86
2024/01/27 07:01:00;;;;;;;23.05;8.23;;;;;;;-147.95;100.00;58458.38;4972473;28;20547;-86
2024/01/27 07:03:27;;;;;;;31.45;8.85;;;;;;;-147.95;100.00;58458.38;4940132;28;20150;-85
2024/01/27 07:05:54;;;;;;;28.02;9.18;;;;;;;-147.95;100.00;58458.38;4969379;28;20041;-85
2024/01/27 07:08:20;;;;;;;27.80;8.48;;;;;;;-147.95;100.00;58458.38;4943532;28;20137;-83
2024/01/27 07:10:47;;;;;;;21.02;8.52;;;;;;;-147.95;100.00;58458.38;4971484;28;20038;-83
2024/01/27 07:13:13;;;;;;;23.45;8.27;;;;;;;-147.95;100.00;58458.38;4980326;28;20041;-84
2024/01/27 07:15:38;;;;;;;21.95;9.38;;;;;;;-147.95;100.00;58458.38;4992227;28;20065;-83
2024/01/27 07:18:04;;;;;;;23.75;8.50;;;;;;;-147.95;100.00;58458.38;4948660;28;20535;-81
2024/01/27 07:20:31;;;;;;;21.55;8.50;;;;;;;-147.95;100.00;58458.38;4976470;28;20035;-84
2024/01/27 07:22:58;;;;;;;27.70;8.00;;;;;;;-147.95;100.00;58458.38;4944820;28;20100;-84
2024/01/27 07:25:23;;;;;;;22.52;8.25;;;;;;;-147.95;100.00;58458.38;4947077;28;20033;-83
2024/01/27 07:27:48;;;;;;;23.20;8.80;;;;;;;-147.95;100.00;58458.38;4960738;28;20038;-82
2024/01/27 07:30:14;;;;;;;25.75;9.50;;;;;;;-147.95;100.00;58458.38;4944722;28;20034;-84
2024/01/27 07:32:41;;;;;;;24.63;8.50;;;;;;;-147.95;100.00;58458.38;4993320;28;20030;-83
2024/01/27 07:35:08;;;;;;;25.58;7.90;;;;;;;-147.95;100.00;58458.38;4958721;28;20129;-83
2024/01/27 07:37:33;;;;;;;21.80;7.93;;;;;;;-147.95;100.00;58458.38;4942162;28;20040;-83
2024/01/27 07:40:00;;;;;;;31.13;8.35;;;;;;;-147.95;100.00;58458.38;4960889;28;20077;-82
2024/01/27 07:42:25;;;;;;;23.67;9.32;;;;;;;-147.95;100.00;58458.38;4961567;28;20042;-82
2024/01/27 07:44:52;;;;;;;22.38;9.10;;;;;;;-147.95;100.00;58458.38;4954778;28;20569;-82
2024/01/27 07:47:18;;;;;;;25.85;8.80;;;;;;;-147.95;100.00;58458.38;4958939;28;20105;-82
2024/01/27 07:49:44;;;;;;;18.35;8.18;;;;;;;-147.95;100.00;58458.38;4956561;28;20084;-82
2024/01/27 07:52:10;;;;;;;26.85;8.75;;;;;;;-147.95;100.00;58458.38;4976795;28;20042;-82
2024/01/27 07:54:38;;;;;;;21.38;8.30;;;;;;;-147.95;100.00;58458.38;4969833;28;20049;-84
2024/01/27 07:57:06;;;;;;;24.17;9.23;;;;;;;-147.95;100.00;58458.38;4945542;28;20034;-84
2024/01/27 07:59:32;;;;;;;25.83;8.50;;;;;;;-147.95;100.00;58458.38;4946526;28;20126;-83
2024/01/27 08:01:59;;;;;;;22.48;9.18;;;;;;;-147.95;100.00;58458.38;4960335;28;20145;-85
2024/01/27 08:04:25;;;;;;;22.45;8.63;;;;;;;-147.95;100.00;58458.38;4962022;28;20137;-84
2024/01/27 08:06:51;;;;;;;27.95;8.68;;;;;;;-147.95;100.00;58458.38;4963986;28;20544;-83
2024/01/27 08:09:17;;;;;;;28.17;9.13;;;;;;;-147.95;100.00;58458.38;4958680;28;20530;-84
2024/01/27 08:11:43;;;;;;;32.58;8.75;;;;;;;-147.95;100.00;58458.38;4946018;28;20057;-83
2024/01/27 08:14:10;;;;;;;22.48;9.27;;;;;;;-147.95;100.00;58458.38;4957625;28;20101;-83
2024/01/27 08:16:36;;;;;;;39.75;9.10;;;;;;;-147.95;100.00;58458.38;4960161;28;20046;-82
2024/01/27 08:19:03;;;;;;;26.88;9.02;;;;;;;-147.95;100.00;58458.38;4958923;28;20025;-82
2024/01/27 08:21:28;;;;;;;25.15;8.70;;;;;;;-147.95;100.00;58458.38;4984231;28;20030;-83
2024/01/27 08:23:56;;;;;;;22.02;8.63;;;;;;;-147.95;100.00;58458.38;4974477;28;20037;-83
2024/01/27 08:26:22;;;;;;;30.70;9.23;;;;;;;-147.95;100.00;58458.38;4992895;28;20110;-83
2024/01/27 08:28:47;;;;;;;22.85;9.18;;;;;;;-147.95;100.00;58458.38;4943269;28;20042;-83
2024/01/27 08:31:13;;;;;;;32.13;9.05;;;;;;;-147.95;100.00;58458.38;4971896;28;20053;-85
2024/01/27 08:33:40;;;;;;;30.75;9.70;;;;;;;-147.95;100.00;58458.38;4990174;28;20042;-82
2024/01/27 08:36:07;;;;;;;26.63;8.50;;;;;;;-147.95;100.00;58458.38;4950037;28;20042;-84
2024/01/27 08:38:33;;;;;;;23.27;9.40;;;;;;;-147.95;100.00;58458.38;4958251;28;20034;-83
2024/01/27 08:40:59;;;;;;;26.20;9.40;;;;;;;-147.95;100.00;58458.38;4986573;28;20026;-83
2024/01/27 08:43:27;;;;;;;23.73;8.35;;;;;;;-147.95;100.00;58458.38;4935546;28;20042;-85
2024/01/27 08:45:54;;;;;;;21.17;8.43;;;;;;;-147.95;100.00;58458.38;4935957;28;20065;-82
2024/01/27 08:48:20;;;;;;;34.15;8.85;;;;;;;-147.95;100.00;58458.38;4959645;28;20085;-85
2024/01/27 08:50:45;;;;;;;27.92;8.60;;;;;;;-147.95;100.00;58458.38;4955765;28;20038;-84
2024/01/27 08:53:18;;;;;;;23.58;9.13;;;;;;;-147.95;100.00;58458.38;4960283;28;20153;-84
2024/01/27 08:55:46;;;;;;;32.03;8.98;;;;;;;-147.95;100.00;58458.38;4982522;28;20022;-83
2024/01/27 08:58:11;;;;;;;25.23;9.05;;;;;;;-147.95;100.00;58458.38;4937388;28;20037;-83
2024/01/27 09:00:39;;;;;;;23.02;9.02;;;;;;;-147.95;100.00;58458.38;4953164;28;20121;-84
2024/01/27 09:03:09;;;;;;;23.85;8.32;;;;;;;-147.95;100.00;58458.38;4941354;28;20054;-89
2024/01/27 09:05:35;;;;;;;21.25;8.73;;;;;;;-147.95;100.00;58458.38;4964431;28;20048;-86
2024/01/27 09:08:00;;;;;;;29.42;8.73;;;;;;;-147.95;100.00;58458.38;4941473;29;20387;-92
2024/01/27 09:10:28;;;;;;;30.27;9.05;;;;;;;-147.95;100.00;58458.38;4925973;29;20154;-93
2024/01/27 09:12:54;;;;;;;28.95;8.75;;;;;;;-147.95;100.00;58458.38;4940872;29;20035;-92
2024/01/27 09:15:19;;;;;;;30.20;8.80;;;;;;;-147.95;100.00;58458.38;4924792;29;20102;-92
2024/01/27 09:17:45;;;;;;;24.45;8.40;;;;;;;-147.95;100.00;58458.38;4942215;28;20023;-93
2024/01/27 09:20:16;;;;;;;30.65;8.45;;;;;;;-147.95;100.00;58458.38;4929757;29;20035;-91
2024/01/27 09:22:47;;;;;;;26.42;7.88;;;;;;;-147.95;100.00;58458.38;4939084;29;20036;-92
2024/01/27 09:25:13;;;;;;;21.17;8.80;;;;;;;-147.95;100.00;58458.38;4943907;29;20070;-91
2024/01/27 09:27:39;;;;;;;20.50;7.47;;;;;;;-147.95;100.00;58458.38;4944575;28;20023;-92
2024/01/27 09:30:06;;;;;;;23.52;7.78;;;;;;;-147.95;100.00;58458.38;4956286;28;20030;-89
2024/01/27 09:32:32;;;;;;;26.02;8.25;;;;;;;-147.95;100.00;58458.38;4954664;28;20031;-90
2024/01/27 09:34:58;;;;;;;24.92;8.75;;;;;;;-147.95;100.00;58458.38;4960260;28;20374;-90
2024/01/27 09:37:23;;;;;;;25.33;8.35;;;;;;;-147.95;100.00;58458.38;4942179;29;20031;-91
2024/01/27 09:39:49;;;;;;;24.20;8.95;;;;;;;-147.95;100.00;58458.38;4915283;29;20046;-90
2024/01/27 09:42:15;;;;;;;13.60;7.32;;;;;;;-147.95;100.00;58458.38;4936100;29;20474;-90
2024/01/27 09:44:46;;;;;;;19.42;7.72;;;;;;;-147.95;100.00;58458.38;4966384;28;20031;-89
2024/01/27 09:47:13;;;;;;;25.40;8.20;;;;;;;-147.95;100.00;58458.38;4962005;28;20043;-89
2024/01/27 09:49:41;;;;;;;27.60;8.00;;;;;;;-147.95;100.00;58458.38;4941322;29;20035;-93
2024/01/27 09:52:08;;;;;;;31.70;8.40;;;;;;;-147.95;100.00;58458.38;4920345;29;20066;-89
2024/01/27 09:54:34;;;;;;;20.15;7.43;;;;;;;-147.95;100.00;58458.38;4951514;28;20058;-89
2024/01/27 09:57:00;;;;;;;21.23;7.03;;;;;;;-147.95;100.00;58458.38;4938134;29;20054;-90
2024/01/27 09:59:26;;;;;;;25.42;7.55;;;;;;;-147.95;100.00;58458.38;4949595;28;20110;-90
2024/01/27 10:01:57;;;;;;;23.27;7.05;;;;;;;-147.95;100.00;58458.38;4964363;28;20062;-91
2024/01/27 10:04:25;;;;;;;20.17;6.97;;;;;;;-147.95;100.00;58458.38;4983547;28;20046;-93
2024/01/27 10:06:53;;;;;;;20.00;7.20;;;;;;;-147.95;100.00;58458.38;4988655;28;20085;-93
2024/01/27 10:09:18;;;;;;;22.30;7.47;;;;;;;-147.95;100.00;58458.38;4951222;28;20031;-91
2024/01/27 10:11:49;;;;;;;22.42;7.07;;;;;;;-147.95;100.00;58458.38;4963852;28;20062;-94
2024/01/27 10:14:15;;;;;;;19.52;6.35;;;;;;;-147.95;100.00;58458.38;4968361;28;20026;-90
2024/01/27 10:16:45;;;;;;;17.30;5.75;;;;;;;-147.95;100.00;58458.38;4959826;28;20101;-88
2024/01/27 10:19:18;;;;;;;19.02;6.20;;;;;;;-147.95;100.00;58458.38;4955930;28;20500;-90
2024/01/27 10:21:47;;;;;;;16.65;6.45;;;;;;;-147.95;100.00;58458.38;4957913;28;20030;-88
2024/01/27 10:24:13;;;;;;;20.70;6.18;;;;;;;-147.95;100.00;58458.38;4954327;28;20130;-89
2024/01/27 10:26:41;;;;;;;17.60;6.05;;;;;;;-147.95;100.00;58458.38;4972937;28;20039;-89
2024/01/27 10:29:09;;;;;;;17.40;6.22;;;;;;;-147.95;100.00;58458.38;4972389;28;20046;-90
2024/01/27 10:31:39;;;;;;;18.52;5.72;;;;;;;-147.95;100.00;58458.38;4956871;28;20051;-89
2024/01/27 10:34:09;;;;;;;21.38;6.03;;;;;;;-147.95;100.00;58458.38;4949098;28;20038;-88
2024/01/27 10:36:42;;;;;;;19.35;5.75;;;;;;;-147.95;100.00;58458.38;4978681;28;20035;-88
2024/01/27 10:39:23;;;;;;;18.25;6.00;;;;;;;-147.95;100.00;58458.38;4986248;28;20037;-89
2024/01/27 10:41:51;;;;;;;21.23;6.45;;;;;;;-147.95;100.00;58458.38;4969295;28;21760;-91
2024/01/27 10:44:18;;;;;;;18.45;6.18;;;;;;;-147.95;100.00;58458.38;4966394;28;20070;-90
2024/01/27 10:46:47;;;;;;;21.25;5.80;;;;;;;-147.95;100.00;58458.38;4952066;28;20519;-88
2024/01/27 10:49:34;;;;;;;20.75;6.22;;;;;;;-147.95;100.00;58458.38;4962508;28;20129;-89
2024/01/27 10:52:07;;;;;;;23.80;6.35;;;;;;;-147.95;100.00;58458.38;4952985;28;20585;-87
2024/01/27 10:54:37;;;;;;;24.30;6.43;;;;;;;-147.95;100.00;58458.38;4975118;28;20046;-88
2024/01/27 10:57:05;;;;;;;18.13;5.55;;;;;;;-147.95;100.00;58458.38;4974953;28;20548;-88
2024/01/27 10:59:32;;;;;;;18.98;5.30;;;;;;;-147.95;100.00;58458.38;4948925;28;20129;-90